sensor_id;sensor_type;location;lat;lon;timestamp;temperature;humidity
81140;SHT31;70624;51.978;5.656;2024-02-26T00:00:14;8.2;66.7
81140;SHT31;70624;51.978;5.656;2024-02-26T00:02:43;8.2;66.4
81140;SHT31;70624;51.978;5.656;2024-02-26T00:05:11;8.2;66.6
81140;SHT31;70624;51.978;5.656;2024-02-26T00:07:40;8.1;67.1
81140;SHT31;70624;51.978;5.656;2024-02-26T00:10:09;8.1;67.2
81140;SHT31;70624;51.978;5.656;2024-02-26T00:12:38;8.1;67.0
81140;SHT31;70624;51.978;5.656;2024-02-26T00:15:08;8.1;66.9
81140;SHT31;70624;51.978;5.656;2024-02-26T00:17:36;8.1;66.8
81140;SHT31;70624;51.978;5.656;2024-02-26T00:20:06;8.1;67.2
81140;SHT31;70624;51.978;5.656;2024-02-26T00:22:36;8.1;66.7
81140;SHT31;70624;51.978;5.656;2024-02-26T00:25:05;8.1;67.0
81140;SHT31;70624;51.978;5.656;2024-02-26T00:27:34;8.1;66.8
81140;SHT31;70624;51.978;5.656;2024-02-26T00:30:03;8.1;66.4
81140;SHT31;70624;51.978;5.656;2024-02-26T00:32:31;8.1;66.3
81140;SHT31;70624;51.978;5.656;2024-02-26T00:35:00;8.1;66.6
81140;SHT31;70624;51.978;5.656;2024-02-26T00:37:28;8.0;66.8
81140;SHT31;70624;51.978;5.656;2024-02-26T00:39:57;8.0;66.7
81140;SHT31;70624;51.978;5.656;2024-02-26T00:42:25;8.0;66.7
81140;SHT31;70624;51.978;5.656;2024-02-26T00:44:53;8.0;66.7
81140;SHT31;70624;51.978;5.656;2024-02-26T00:47:22;8.0;66.5
81140;SHT31;70624;51.978;5.656;2024-02-26T00:49:50;8.0;66.9
81140;SHT31;70624;51.978;5.656;2024-02-26T00:52:18;8.0;66.6
81140;SHT31;70624;51.978;5.656;2024-02-26T00:54:47;8.0;67.1
81140;SHT31;70624;51.978;5.656;2024-02-26T00:57:15;8.0;67.2
81140;SHT31;70624;51.978;5.656;2024-02-26T00:59:44;8.0;67.0
81140;SHT31;70624;51.978;5.656;2024-02-26T01:02:12;8.0;66.7
81140;SHT31;70624;51.978;5.656;2024-02-26T01:04:40;8.0;67.0
81140;SHT31;70624;51.978;5.656;2024-02-26T01:07:09;8.0;66.8
81140;SHT31;70624;51.978;5.656;2024-02-26T01:09:37;8.0;67.3
81140;SHT31;70624;51.978;5.656;2024-02-26T01:12:06;8.0;67.2
81140;SHT31;70624;51.978;5.656;2024-02-26T01:14:34;8.0;67.2
81140;SHT31;70624;51.978;5.656;2024-02-26T01:17:03;8.0;67.2
81140;SHT31;70624;51.978;5.656;2024-02-26T01:19:31;8.0;67.3
81140;SHT31;70624;51.978;5.656;2024-02-26T01:22:00;8.0;66.7
81140;SHT31;70624;51.978;5.656;2024-02-26T01:24:29;8.0;66.7
81140;SHT31;70624;51.978;5.656;2024-02-26T01:26:57;8.0;66.7
81140;SHT31;70624;51.978;5.656;2024-02-26T01:29:26;8.0;66.6
81140;SHT31;70624;51.978;5.656;2024-02-26T01:31:54;8.0;66.4
81140;SHT31;70624;51.978;5.656;2024-02-26T01:34:23;8.0;66.8
81140;SHT31;70624;51.978;5.656;2024-02-26T01:36:51;8.0;67.0
81140;SHT31;70624;51.978;5.656;2024-02-26T01:39:20;8.0;66.9
81140;SHT31;70624;51.978;5.656;2024-02-26T01:41:48;8.0;66.8
81140;SHT31;70624;51.978;5.656;2024-02-26T01:44:17;8.0;66.4
81140;SHT31;70624;51.978;5.656;2024-02-26T01:46:46;8.1;66.4
81140;SHT31;70624;51.978;5.656;2024-02-26T01:49:15;8.1;66.8
81140;SHT31;70624;51.978;5.656;2024-02-26T01:51:44;8.1;66.7
81140;SHT31;70624;51.978;5.656;2024-02-26T01:54:13;8.1;66.3
81140;SHT31;70624;51.978;5.656;2024-02-26T01:56:42;8.1;66.4
81140;SHT31;70624;51.978;5.656;2024-02-26T01:59:11;8.0;66.7
81140;SHT31;70624;51.978;5.656;2024-02-26T02:01:42;8.0;66.8
81140;SHT31;70624;51.978;5.656;2024-02-26T02:04:12;8.0;66.6
81140;SHT31;70624;51.978;5.656;2024-02-26T02:06:41;8.0;66.9
81140;SHT31;70624;51.978;5.656;2024-02-26T02:09:11;8.1;66.9
81140;SHT31;70624;51.978;5.656;2024-02-26T02:11:39;8.1;66.7
81140;SHT31;70624;51.978;5.656;2024-02-26T02:14:08;8.1;66.7
81140;SHT31;70624;51.978;5.656;2024-02-26T02:16:36;8.1;66.8
81140;SHT31;70624;51.978;5.656;2024-02-26T02:19:05;8.1;66.4
81140;SHT31;70624;51.978;5.656;2024-02-26T02:21:35;8.1;66.5
81140;SHT31;70624;51.978;5.656;2024-02-26T02:24:04;8.1;66.5
81140;SHT31;70624;51.978;5.656;2024-02-26T02:26:33;8.2;66.2
81140;SHT31;70624;51.978;5.656;2024-02-26T02:29:02;8.2;66.5
81140;SHT31;70624;51.978;5.656;2024-02-26T02:31:31;8.2;66.2
81140;SHT31;70624;51.978;5.656;2024-02-26T02:34:00;8.2;66.3
81140;SHT31;70624;51.978;5.656;2024-02-26T02:36:29;8.2;66.4
81140;SHT31;70624;51.978;5.656;2024-02-26T02:38:58;8.2;66.2
81140;SHT31;70624;51.978;5.656;2024-02-26T02:41:26;8.2;66.1
81140;SHT31;70624;51.978;5.656;2024-02-26T02:43:56;8.2;65.8
81140;SHT31;70624;51.978;5.656;2024-02-26T02:46:24;8.2;66.3
81140;SHT31;70624;51.978;5.656;2024-02-26T02:48:53;8.2;65.9
81140;SHT31;70624;51.978;5.656;2024-02-26T02:51:21;8.2;66.2
81140;SHT31;70624;51.978;5.656;2024-02-26T02:53:50;8.2;65.9
81140;SHT31;70624;51.978;5.656;2024-02-26T02:56:18;8.2;66.6
81140;SHT31;70624;51.978;5.656;2024-02-26T02:58:46;8.2;67.2
81140;SHT31;70624;51.978;5.656;2024-02-26T03:01:15;8.1;66.6
81140;SHT31;70624;51.978;5.656;2024-02-26T03:03:43;8.1;66.4
81140;SHT31;70624;51.978;5.656;2024-02-26T03:06:12;8.1;66.5
81140;SHT31;70624;51.978;5.656;2024-02-26T03:08:40;8.1;66.5
81140;SHT31;70624;51.978;5.656;2024-02-26T03:11:12;8.0;66.6
81140;SHT31;70624;51.978;5.656;2024-02-26T03:13:41;8.0;67.0
81140;SHT31;70624;51.978;5.656;2024-02-26T03:16:12;8.0;67.0
81140;SHT31;70624;51.978;5.656;2024-02-26T03:18:40;8.0;67.0
81140;SHT31;70624;51.978;5.656;2024-02-26T03:21:09;8.0;66.9
81140;SHT31;70624;51.978;5.656;2024-02-26T03:23:39;8.0;66.9
81140;SHT31;70624;51.978;5.656;2024-02-26T03:26:09;8.0;67.1
81140;SHT31;70624;51.978;5.656;2024-02-26T03:28:41;8.0;67.0
81140;SHT31;70624;51.978;5.656;2024-02-26T03:31:09;8.0;66.9
81140;SHT31;70624;51.978;5.656;2024-02-26T03:33:39;8.0;66.8
81140;SHT31;70624;51.978;5.656;2024-02-26T03:36:07;8.0;66.9
81140;SHT31;70624;51.978;5.656;2024-02-26T03:38:37;8.0;66.9
81140;SHT31;70624;51.978;5.656;2024-02-26T03:41:07;8.0;66.4
81140;SHT31;70624;51.978;5.656;2024-02-26T03:43:36;8.0;66.5
81140;SHT31;70624;51.978;5.656;2024-02-26T03:46:07;8.0;66.7
81140;SHT31;70624;51.978;5.656;2024-02-26T03:48:35;8.0;66.2
81140;SHT31;70624;51.978;5.656;2024-02-26T03:51:04;8.0;66.0
81140;SHT31;70624;51.978;5.656;2024-02-26T03:53:32;8.0;66.1
81140;SHT31;70624;51.978;5.656;2024-02-26T03:56:05;8.0;65.9
81140;SHT31;70624;51.978;5.656;2024-02-26T03:58:33;8.0;65.8
81140;SHT31;70624;51.978;5.656;2024-02-26T04:01:02;8.1;65.9
81140;SHT31;70624;51.978;5.656;2024-02-26T04:03:30;8.1;66.1
81140;SHT31;70624;51.978;5.656;2024-02-26T04:05:59;8.1;66.3
81140;SHT31;70624;51.978;5.656;2024-02-26T04:08:29;8.1;66.2
81140;SHT31;70624;51.978;5.656;2024-02-26T04:10:59;8.1;66.2
81140;SHT31;70624;51.978;5.656;2024-02-26T04:13:29;8.1;65.7
81140;SHT31;70624;51.978;5.656;2024-02-26T04:15:57;8.1;65.5
81140;SHT31;70624;51.978;5.656;2024-02-26T04:18:27;8.1;65.5
81140;SHT31;70624;51.978;5.656;2024-02-26T04:20:56;8.0;66.8
81140;SHT31;70624;51.978;5.656;2024-02-26T04:23:25;8.0;66.2
81140;SHT31;70624;51.978;5.656;2024-02-26T04:25:55;8.0;66.8
81140;SHT31;70624;51.978;5.656;2024-02-26T04:28:23;7.9;67.2
81140;SHT31;70624;51.978;5.656;2024-02-26T04:30:55;7.8;68.1
81140;SHT31;70624;51.978;5.656;2024-02-26T04:33:24;7.8;67.6
81140;SHT31;70624;51.978;5.656;2024-02-26T04:35:52;7.8;68.2
81140;SHT31;70624;51.978;5.656;2024-02-26T04:38:21;7.8;67.8
81140;SHT31;70624;51.978;5.656;2024-02-26T04:40:49;7.8;68.4
81140;SHT31;70624;51.978;5.656;2024-02-26T04:43:17;7.8;68.6
81140;SHT31;70624;51.978;5.656;2024-02-26T04:45:46;7.8;68.5
81140;SHT31;70624;51.978;5.656;2024-02-26T04:48:14;7.8;67.9
81140;SHT31;70624;51.978;5.656;2024-02-26T04:50:43;7.8;68.6
81140;SHT31;70624;51.978;5.656;2024-02-26T04:53:11;7.7;68.3
81140;SHT31;70624;51.978;5.656;2024-02-26T04:55:40;7.7;68.8
81140;SHT31;70624;51.978;5.656;2024-02-26T04:58:08;7.7;69.4
81140;SHT31;70624;51.978;5.656;2024-02-26T05:00:36;7.6;69.4
81140;SHT31;70624;51.978;5.656;2024-02-26T05:03:05;7.6;69.2
81140;SHT31;70624;51.978;5.656;2024-02-26T05:05:34;7.6;69.8
81140;SHT31;70624;51.978;5.656;2024-02-26T05:08:02;7.6;69.4
81140;SHT31;70624;51.978;5.656;2024-02-26T05:10:31;7.6;70.0
81140;SHT31;70624;51.978;5.656;2024-02-26T05:13:00;7.6;68.8
81140;SHT31;70624;51.978;5.656;2024-02-26T05:15:28;7.6;69.6
81140;SHT31;70624;51.978;5.656;2024-02-26T05:17:57;7.5;69.9
81140;SHT31;70624;51.978;5.656;2024-02-26T05:20:25;7.5;69.8
81140;SHT31;70624;51.978;5.656;2024-02-26T05:22:54;7.5;70.5
81140;SHT31;70624;51.978;5.656;2024-02-26T05:25:25;7.5;70.9
81140;SHT31;70624;51.978;5.656;2024-02-26T05:27:53;7.5;70.8
81140;SHT31;70624;51.978;5.656;2024-02-26T05:30:21;7.5;70.6
81140;SHT31;70624;51.978;5.656;2024-02-26T05:32:50;7.5;71.1
81140;SHT31;70624;51.978;5.656;2024-02-26T05:35:18;7.4;70.7
81140;SHT31;70624;51.978;5.656;2024-02-26T05:37:47;7.4;70.8
81140;SHT31;70624;51.978;5.656;2024-02-26T05:40:16;7.4;70.9
81140;SHT31;70624;51.978;5.656;2024-02-26T05:42:44;7.4;70.8
81140;SHT31;70624;51.978;5.656;2024-02-26T05:45:13;7.4;71.6
81140;SHT31;70624;51.978;5.656;2024-02-26T05:47:41;7.4;70.8
81140;SHT31;70624;51.978;5.656;2024-02-26T05:50:11;7.4;71.7
81140;SHT31;70624;51.978;5.656;2024-02-26T05:52:40;7.4;71.5
81140;SHT31;70624;51.978;5.656;2024-02-26T05:55:09;7.4;71.6
81140;SHT31;70624;51.978;5.656;2024-02-26T05:57:37;7.4;71.6
81140;SHT31;70624;51.978;5.656;2024-02-26T06:00:07;7.4;71.5
81140;SHT31;70624;51.978;5.656;2024-02-26T06:02:35;7.4;71.8
81140;SHT31;70624;51.978;5.656;2024-02-26T06:05:04;7.4;71.9
81140;SHT31;70624;51.978;5.656;2024-02-26T06:07:35;7.4;71.8
81140;SHT31;70624;51.978;5.656;2024-02-26T06:10:04;7.4;72.0
81140;SHT31;70624;51.978;5.656;2024-02-26T06:12:35;7.4;72.4
81140;SHT31;70624;51.978;5.656;2024-02-26T06:15:03;7.5;71.1
81140;SHT31;70624;51.978;5.656;2024-02-26T06:17:32;7.5;71.5
81140;SHT31;70624;51.978;5.656;2024-02-26T06:20:01;7.5;71.2
81140;SHT31;70624;51.978;5.656;2024-02-26T06:22:30;7.5;70.9
81140;SHT31;70624;51.978;5.656;2024-02-26T06:24:59;7.5;71.4
81140;SHT31;70624;51.978;5.656;2024-02-26T06:27:29;7.5;71.2
81140;SHT31;70624;51.978;5.656;2024-02-26T06:29:58;7.5;71.8
81140;SHT31;70624;51.978;5.656;2024-02-26T06:32:26;7.5;72.5
81140;SHT31;70624;51.978;5.656;2024-02-26T06:34:55;7.5;72.2
81140;SHT31;70624;51.978;5.656;2024-02-26T06:37:24;7.5;71.8
81140;SHT31;70624;51.978;5.656;2024-02-26T06:39:52;7.5;71.9
81140;SHT31;70624;51.978;5.656;2024-02-26T06:42:21;7.5;72.2
81140;SHT31;70624;51.978;5.656;2024-02-26T06:44:49;7.5;71.7
81140;SHT31;70624;51.978;5.656;2024-02-26T06:47:17;7.5;71.4
81140;SHT31;70624;51.978;5.656;2024-02-26T06:49:46;7.5;72.2
81140;SHT31;70624;51.978;5.656;2024-02-26T06:52:16;7.5;71.5
81140;SHT31;70624;51.978;5.656;2024-02-26T06:54:45;7.5;71.4
81140;SHT31;70624;51.978;5.656;2024-02-26T06:57:14;7.5;72.4
81140;SHT31;70624;51.978;5.656;2024-02-26T06:59:43;7.5;71.7
81140;SHT31;70624;51.978;5.656;2024-02-26T07:02:13;7.5;72.0
81140;SHT31;70624;51.978;5.656;2024-02-26T07:04:42;7.5;71.7
81140;SHT31;70624;51.978;5.656;2024-02-26T07:07:12;7.5;71.8
81140;SHT31;70624;51.978;5.656;2024-02-26T07:09:43;7.5;72.6
81140;SHT31;70624;51.978;5.656;2024-02-26T07:12:12;7.5;72.4
81140;SHT31;70624;51.978;5.656;2024-02-26T07:14:42;7.5;71.8
81140;SHT31;70624;51.978;5.656;2024-02-26T07:17:10;7.5;72.5
81140;SHT31;70624;51.978;5.656;2024-02-26T07:19:39;7.5;72.6
81140;SHT31;70624;51.978;5.656;2024-02-26T07:22:08;7.5;72.9
81140;SHT31;70624;51.978;5.656;2024-02-26T07:24:38;7.5;72.7
81140;SHT31;70624;51.978;5.656;2024-02-26T07:27:06;7.5;73.5
81140;SHT31;70624;51.978;5.656;2024-02-26T07:29:35;7.5;73.0
81140;SHT31;70624;51.978;5.656;2024-02-26T07:32:04;7.5;73.3
81140;SHT31;70624;51.978;5.656;2024-02-26T07:34:32;7.5;73.6
81140;SHT31;70624;51.978;5.656;2024-02-26T07:37:01;7.5;73.6
81140;SHT31;70624;51.978;5.656;2024-02-26T07:39:30;7.4;74.4
81140;SHT31;70624;51.978;5.656;2024-02-26T07:41:58;7.4;75.4
81140;SHT31;70624;51.978;5.656;2024-02-26T07:44:27;7.4;76.3
81140;SHT31;70624;51.978;5.656;2024-02-26T07:46:55;7.4;76.0
81140;SHT31;70624;51.978;5.656;2024-02-26T07:49:23;7.4;76.0
81140;SHT31;70624;51.978;5.656;2024-02-26T07:51:52;7.4;76.0
81140;SHT31;70624;51.978;5.656;2024-02-26T07:54:21;7.4;75.9
81140;SHT31;70624;51.978;5.656;2024-02-26T07:56:49;7.4;75.6
81140;SHT31;70624;51.978;5.656;2024-02-26T07:59:19;7.4;75.3
81140;SHT31;70624;51.978;5.656;2024-02-26T08:01:51;7.4;75.2
81140;SHT31;70624;51.978;5.656;2024-02-26T08:04:19;7.3;75.7
81140;SHT31;70624;51.978;5.656;2024-02-26T08:06:50;7.3;76.1
81140;SHT31;70624;51.978;5.656;2024-02-26T08:09:19;7.3;76.9
81140;SHT31;70624;51.978;5.656;2024-02-26T08:11:47;7.3;77.1
81140;SHT31;70624;51.978;5.656;2024-02-26T08:14:16;7.3;76.7
81140;SHT31;70624;51.978;5.656;2024-02-26T08:16:44;7.3;76.8
81140;SHT31;70624;51.978;5.656;2024-02-26T08:19:13;7.3;76.7
81140;SHT31;70624;51.978;5.656;2024-02-26T08:21:42;7.3;76.9
81140;SHT31;70624;51.978;5.656;2024-02-26T08:24:10;7.3;77.1
81140;SHT31;70624;51.978;5.656;2024-02-26T08:26:39;7.3;76.2
81140;SHT31;70624;51.978;5.656;2024-02-26T08:29:07;7.2;77.1
81140;SHT31;70624;51.978;5.656;2024-02-26T08:31:35;7.2;76.7
81140;SHT31;70624;51.978;5.656;2024-02-26T08:34:04;7.2;77.4
81140;SHT31;70624;51.978;5.656;2024-02-26T08:36:34;7.2;77.8
81140;SHT31;70624;51.978;5.656;2024-02-26T08:39:03;7.2;78.2
81140;SHT31;70624;51.978;5.656;2024-02-26T08:41:33;7.2;77.7
81140;SHT31;70624;51.978;5.656;2024-02-26T08:44:01;7.1;78.4
81140;SHT31;70624;51.978;5.656;2024-02-26T08:46:30;7.1;79.2
81140;SHT31;70624;51.978;5.656;2024-02-26T08:48:59;7.2;79.1
81140;SHT31;70624;51.978;5.656;2024-02-26T08:51:27;7.2;79.1
81140;SHT31;70624;51.978;5.656;2024-02-26T08:53:58;7.2;78.8
81140;SHT31;70624;51.978;5.656;2024-02-26T08:56:26;7.2;79.3
81140;SHT31;70624;51.978;5.656;2024-02-26T08:58:54;7.2;79.1
81140;SHT31;70624;51.978;5.656;2024-02-26T09:01:23;7.3;78.6
81140;SHT31;70624;51.978;5.656;2024-02-26T09:03:52;7.3;78.0
81140;SHT31;70624;51.978;5.656;2024-02-26T09:06:21;7.3;77.9
81140;SHT31;70624;51.978;5.656;2024-02-26T09:08:51;7.3;77.8
81140;SHT31;70624;51.978;5.656;2024-02-26T09:11:20;7.3;78.0
81140;SHT31;70624;51.978;5.656;2024-02-26T09:13:48;7.2;78.3
81140;SHT31;70624;51.978;5.656;2024-02-26T09:16:16;7.2;78.9
81140;SHT31;70624;51.978;5.656;2024-02-26T09:18:45;7.2;78.6
81140;SHT31;70624;51.978;5.656;2024-02-26T09:21:13;7.2;78.4
81140;SHT31;70624;51.978;5.656;2024-02-26T09:23:45;7.2;79.0
81140;SHT31;70624;51.978;5.656;2024-02-26T09:26:13;7.2;79.3
81140;SHT31;70624;51.978;5.656;2024-02-26T09:28:42;7.2;78.5
81140;SHT31;70624;51.978;5.656;2024-02-26T09:31:10;7.2;78.1
81140;SHT31;70624;51.978;5.656;2024-02-26T09:33:42;7.2;78.4
81140;SHT31;70624;51.978;5.656;2024-02-26T09:36:10;7.1;79.1
81140;SHT31;70624;51.978;5.656;2024-02-26T09:38:40;7.1;79.9
81140;SHT31;70624;51.978;5.656;2024-02-26T09:41:15;7.1;80.9
81140;SHT31;70624;51.978;5.656;2024-02-26T09:43:45;7.1;80.8
81140;SHT31;70624;51.978;5.656;2024-02-26T09:46:14;7.1;80.4
81140;SHT31;70624;51.978;5.656;2024-02-26T09:48:47;7.1;80.7
81140;SHT31;70624;51.978;5.656;2024-02-26T09:51:16;7.1;79.9
81140;SHT31;70624;51.978;5.656;2024-02-26T09:53:48;7.1;79.5
81140;SHT31;70624;51.978;5.656;2024-02-26T09:56:21;7.1;79.7
81140;SHT31;70624;51.978;5.656;2024-02-26T09:58:52;7.1;80.1
81140;SHT31;70624;51.978;5.656;2024-02-26T10:01:22;7.0;80.7
81140;SHT31;70624;51.978;5.656;2024-02-26T10:03:55;7.0;81.1
81140;SHT31;70624;51.978;5.656;2024-02-26T10:06:26;7.0;80.4
81140;SHT31;70624;51.978;5.656;2024-02-26T10:08:56;7.1;80.4
81140;SHT31;70624;51.978;5.656;2024-02-26T10:11:25;7.0;79.7
81140;SHT31;70624;51.978;5.656;2024-02-26T10:13:56;7.0;80.1
81140;SHT31;70624;51.978;5.656;2024-02-26T10:16:25;7.0;80.4
81140;SHT31;70624;51.978;5.656;2024-02-26T10:18:54;7.0;80.4
81140;SHT31;70624;51.978;5.656;2024-02-26T10:21:23;7.0;79.7
81140;SHT31;70624;51.978;5.656;2024-02-26T10:23:52;7.0;80.5
81140;SHT31;70624;51.978;5.656;2024-02-26T10:26:20;7.0;79.6
81140;SHT31;70624;51.978;5.656;2024-02-26T10:28:49;7.0;79.6
81140;SHT31;70624;51.978;5.656;2024-02-26T10:31:17;7.0;79.9
81140;SHT31;70624;51.978;5.656;2024-02-26T10:33:46;7.0;81.1
81140;SHT31;70624;51.978;5.656;2024-02-26T10:36:17;7.0;81.3
81140;SHT31;70624;51.978;5.656;2024-02-26T10:38:45;7.0;81.3
81140;SHT31;70624;51.978;5.656;2024-02-26T10:41:14;7.0;80.2
81140;SHT31;70624;51.978;5.656;2024-02-26T10:43:43;7.1;80.5
81140;SHT31;70624;51.978;5.656;2024-02-26T10:46:12;7.1;80.6
81140;SHT31;70624;51.978;5.656;2024-02-26T10:48:51;7.1;80.8
81140;SHT31;70624;51.978;5.656;2024-02-26T10:51:22;7.1;79.2
81140;SHT31;70624;51.978;5.656;2024-02-26T10:53:56;7.1;79.6
81140;SHT31;70624;51.978;5.656;2024-02-26T10:56:27;7.2;79.6
81140;SHT31;70624;51.978;5.656;2024-02-26T10:58:57;7.2;79.5
81140;SHT31;70624;51.978;5.656;2024-02-26T11:01:27;7.2;79.8
81140;SHT31;70624;51.978;5.656;2024-02-26T11:03:57;7.2;79.3
81140;SHT31;70624;51.978;5.656;2024-02-26T11:06:28;7.2;80.6
81140;SHT31;70624;51.978;5.656;2024-02-26T11:08:59;7.2;80.4
81140;SHT31;70624;51.978;5.656;2024-02-26T11:11:30;7.2;80.1
81140;SHT31;70624;51.978;5.656;2024-02-26T11:14:01;7.2;79.2
81140;SHT31;70624;51.978;5.656;2024-02-26T11:16:34;7.2;80.7
81140;SHT31;70624;51.978;5.656;2024-02-26T11:19:06;7.2;80.7
81140;SHT31;70624;51.978;5.656;2024-02-26T11:21:37;7.2;80.1
81140;SHT31;70624;51.978;5.656;2024-02-26T11:24:12;7.2;80.5
81140;SHT31;70624;51.978;5.656;2024-02-26T11:26:45;7.2;80.8
81140;SHT31;70624;51.978;5.656;2024-02-26T11:29:21;7.3;81.2
81140;SHT31;70624;51.978;5.656;2024-02-26T11:31:50;7.3;80.4
81140;SHT31;70624;51.978;5.656;2024-02-26T11:34:19;7.3;80.1
81140;SHT31;70624;51.978;5.656;2024-02-26T11:36:50;7.3;80.4
81140;SHT31;70624;51.978;5.656;2024-02-26T11:39:19;7.3;79.9
81140;SHT31;70624;51.978;5.656;2024-02-26T11:41:48;7.3;79.0
81140;SHT31;70624;51.978;5.656;2024-02-26T11:44:30;7.3;78.9
81140;SHT31;70624;51.978;5.656;2024-02-26T11:46:58;7.3;79.5
81140;SHT31;70624;51.978;5.656;2024-02-26T11:49:35;7.3;79.8
81140;SHT31;70624;51.978;5.656;2024-02-26T11:52:06;7.3;79.7
81140;SHT31;70624;51.978;5.656;2024-02-26T11:54:44;7.3;79.7
81140;SHT31;70624;51.978;5.656;2024-02-26T11:57:26;7.2;80.7
81140;SHT31;70624;51.978;5.656;2024-02-26T11:59:56;7.2;80.9
81140;SHT31;70624;51.978;5.656;2024-02-26T12:02:41;7.2;80.5
81140;SHT31;70624;51.978;5.656;2024-02-26T12:05:12;7.2;81.0
81140;SHT31;70624;51.978;5.656;2024-02-26T12:07:44;7.2;81.8
81140;SHT31;70624;51.978;5.656;2024-02-26T12:10:24;7.2;80.6
81140;SHT31;70624;51.978;5.656;2024-02-26T12:12:59;7.3;80.6
81140;SHT31;70624;51.978;5.656;2024-02-26T12:15:33;7.3;80.0
81140;SHT31;70624;51.978;5.656;2024-02-26T12:18:04;7.3;80.3
81140;SHT31;70624;51.978;5.656;2024-02-26T12:20:33;7.3;79.4
81140;SHT31;70624;51.978;5.656;2024-02-26T12:23:04;7.2;79.6
81140;SHT31;70624;51.978;5.656;2024-02-26T12:25:33;7.2;80.1
81140;SHT31;70624;51.978;5.656;2024-02-26T12:28:01;7.2;80.9
81140;SHT31;70624;51.978;5.656;2024-02-26T12:30:31;7.2;80.7
81140;SHT31;70624;51.978;5.656;2024-02-26T12:32:59;7.2;80.4
81140;SHT31;70624;51.978;5.656;2024-02-26T12:35:29;7.2;81.1
81140;SHT31;70624;51.978;5.656;2024-02-26T12:37:59;7.2;80.2
81140;SHT31;70624;51.978;5.656;2024-02-26T12:40:29;7.2;80.4
81140;SHT31;70624;51.978;5.656;2024-02-26T12:42:58;7.2;80.8
81140;SHT31;70624;51.978;5.656;2024-02-26T12:45:26;7.2;80.9
81140;SHT31;70624;51.978;5.656;2024-02-26T12:47:55;7.2;81.2
81140;SHT31;70624;51.978;5.656;2024-02-26T12:50:26;7.3;80.2
81140;SHT31;70624;51.978;5.656;2024-02-26T12:52:57;7.3;80.1
81140;SHT31;70624;51.978;5.656;2024-02-26T12:55:27;7.3;80.5
81140;SHT31;70624;51.978;5.656;2024-02-26T12:57:59;7.3;79.7
81140;SHT31;70624;51.978;5.656;2024-02-26T13:00:29;7.3;80.3
81140;SHT31;70624;51.978;5.656;2024-02-26T13:02:59;7.3;80.4
81140;SHT31;70624;51.978;5.656;2024-02-26T13:05:29;7.3;80.5
81140;SHT31;70624;51.978;5.656;2024-02-26T13:07:57;7.3;81.1
81140;SHT31;70624;51.978;5.656;2024-02-26T13:10:26;7.4;79.6
81140;SHT31;70624;51.978;5.656;2024-02-26T13:12:55;7.4;78.4
81140;SHT31;70624;51.978;5.656;2024-02-26T13:15:23;7.4;79.8
81140;SHT31;70624;51.978;5.656;2024-02-26T13:17:51;7.4;80.3
81140;SHT31;70624;51.978;5.656;2024-02-26T13:20:29;7.4;79.3
81140;SHT31;70624;51.978;5.656;2024-02-26T13:23:02;7.4;79.9
81140;SHT31;70624;51.978;5.656;2024-02-26T13:25:31;7.5;79.5
81140;SHT31;70624;51.978;5.656;2024-02-26T13:28:08;7.5;80.5
81140;SHT31;70624;51.978;5.656;2024-02-26T13:30:37;7.5;79.0
81140;SHT31;70624;51.978;5.656;2024-02-26T13:33:10;7.5;78.7
81140;SHT31;70624;51.978;5.656;2024-02-26T13:35:39;7.5;79.3
81140;SHT31;70624;51.978;5.656;2024-02-26T13:38:10;7.5;78.8
81140;SHT31;70624;51.978;5.656;2024-02-26T13:40:39;7.5;78.2
81140;SHT31;70624;51.978;5.656;2024-02-26T13:43:08;7.5;79.2
81140;SHT31;70624;51.978;5.656;2024-02-26T13:45:38;7.5;79.3
81140;SHT31;70624;51.978;5.656;2024-02-26T13:48:08;7.5;78.9
81140;SHT31;70624;51.978;5.656;2024-02-26T13:50:38;7.6;78.3
81140;SHT31;70624;51.978;5.656;2024-02-26T13:53:06;7.6;78.1
81140;SHT31;70624;51.978;5.656;2024-02-26T13:55:35;7.6;79.5
81140;SHT31;70624;51.978;5.656;2024-02-26T13:58:03;7.6;79.3
81140;SHT31;70624;51.978;5.656;2024-02-26T14:00:33;7.6;78.9
81140;SHT31;70624;51.978;5.656;2024-02-26T14:03:02;7.6;78.3
81140;SHT31;70624;51.978;5.656;2024-02-26T14:05:31;7.7;77.3
81140;SHT31;70624;51.978;5.656;2024-02-26T14:07:59;7.7;78.4
81140;SHT31;70624;51.978;5.656;2024-02-26T14:10:28;7.7;77.5
81140;SHT31;70624;51.978;5.656;2024-02-26T14:12:56;7.7;78.2
81140;SHT31;70624;51.978;5.656;2024-02-26T14:15:25;7.7;77.3
81140;SHT31;70624;51.978;5.656;2024-02-26T14:17:55;7.7;76.6
81140;SHT31;70624;51.978;5.656;2024-02-26T14:20:25;7.7;77.2
81140;SHT31;70624;51.978;5.656;2024-02-26T14:22:55;7.7;77.6
81140;SHT31;70624;51.978;5.656;2024-02-26T14:25:24;7.7;77.5
81140;SHT31;70624;51.978;5.656;2024-02-26T14:27:52;7.7;77.4
81140;SHT31;70624;51.978;5.656;2024-02-26T14:30:21;7.7;76.3
81140;SHT31;70624;51.978;5.656;2024-02-26T14:32:49;7.7;77.8
81140;SHT31;70624;51.978;5.656;2024-02-26T14:35:18;7.7;76.5
81140;SHT31;70624;51.978;5.656;2024-02-26T14:37:46;7.7;76.8
81140;SHT31;70624;51.978;5.656;2024-02-26T14:40:16;7.8;77.3
81140;SHT31;70624;51.978;5.656;2024-02-26T14:42:45;7.8;76.0
81140;SHT31;70624;51.978;5.656;2024-02-26T14:45:14;7.8;76.7
81140;SHT31;70624;51.978;5.656;2024-02-26T14:47:42;7.9;77.1
81140;SHT31;70624;51.978;5.656;2024-02-26T14:50:11;7.9;76.7
81140;SHT31;70624;51.978;5.656;2024-02-26T14:52:40;8.0;75.6
81140;SHT31;70624;51.978;5.656;2024-02-26T14:55:08;8.0;75.4
81140;SHT31;70624;51.978;5.656;2024-02-26T14:57:39;8.0;74.7
81140;SHT31;70624;51.978;5.656;2024-02-26T15:00:08;8.1;74.3
81140;SHT31;70624;51.978;5.656;2024-02-26T15:02:38;8.1;74.8
81140;SHT31;70624;51.978;5.656;2024-02-26T15:05:07;8.1;74.3
81140;SHT31;70624;51.978;5.656;2024-02-26T15:07:37;8.2;73.7
81140;SHT31;70624;51.978;5.656;2024-02-26T15:10:07;8.2;72.4
81140;SHT31;70624;51.978;5.656;2024-02-26T15:12:35;8.2;72.1
81140;SHT31;70624;51.978;5.656;2024-02-26T15:15:04;8.2;72.2
81140;SHT31;70624;51.978;5.656;2024-02-26T15:17:33;8.2;71.5
81140;SHT31;70624;51.978;5.656;2024-02-26T15:20:02;8.2;71.4
81140;SHT31;70624;51.978;5.656;2024-02-26T15:22:33;8.2;71.4
81140;SHT31;70624;51.978;5.656;2024-02-26T15:25:02;8.2;72.0
81140;SHT31;70624;51.978;5.656;2024-02-26T15:27:31;8.2;72.2
81140;SHT31;70624;51.978;5.656;2024-02-26T15:29:59;8.2;71.6
81140;SHT31;70624;51.978;5.656;2024-02-26T15:32:28;8.2;72.5
81140;SHT31;70624;51.978;5.656;2024-02-26T15:34:56;8.3;71.6
81140;SHT31;70624;51.978;5.656;2024-02-26T15:37:25;8.3;71.2
81140;SHT31;70624;51.978;5.656;2024-02-26T15:39:53;8.3;71.9
81140;SHT31;70624;51.978;5.656;2024-02-26T15:42:22;8.3;72.6
81140;SHT31;70624;51.978;5.656;2024-02-26T15:44:51;8.3;71.6
81140;SHT31;70624;51.978;5.656;2024-02-26T15:47:20;8.3;72.2
81140;SHT31;70624;51.978;5.656;2024-02-26T15:49:48;8.3;71.4
81140;SHT31;70624;51.978;5.656;2024-02-26T15:52:18;8.3;71.3
81140;SHT31;70624;51.978;5.656;2024-02-26T15:54:47;8.3;71.1
81140;SHT31;70624;51.978;5.656;2024-02-26T15:57:16;8.3;71.5
81140;SHT31;70624;51.978;5.656;2024-02-26T15:59:45;8.3;71.2
81140;SHT31;70624;51.978;5.656;2024-02-26T16:02:14;8.3;71.2
81140;SHT31;70624;51.978;5.656;2024-02-26T16:04:44;8.3;70.9
81140;SHT31;70624;51.978;5.656;2024-02-26T16:07:22;8.3;70.9
81140;SHT31;70624;51.978;5.656;2024-02-26T16:09:53;8.3;70.8
81140;SHT31;70624;51.978;5.656;2024-02-26T16:12:30;8.3;70.5
81140;SHT31;70624;51.978;5.656;2024-02-26T16:15:03;8.3;70.3
81140;SHT31;70624;51.978;5.656;2024-02-26T16:17:35;8.2;70.6
81140;SHT31;70624;51.978;5.656;2024-02-26T16:20:07;8.2;70.4
81140;SHT31;70624;51.978;5.656;2024-02-26T16:22:38;8.2;70.8
81140;SHT31;70624;51.978;5.656;2024-02-26T16:25:08;8.2;70.5
81140;SHT31;70624;51.978;5.656;2024-02-26T16:27:37;8.2;70.2
81140;SHT31;70624;51.978;5.656;2024-02-26T16:30:08;8.2;70.4